• Join FlightAware (Why Join?)
  • Login
  • US Flag 
05:08PM EDT


 

Airport Tracker/Info


-or-


 

Live Flight TrackerFlight Track Log ✈ ASQ6115 ✈ 23-Sep-2013 ✈ KBNA - KIAH

Flight Track Log - Related Links

Times and Time Zones

All times are in EDT time to prevent confusion due to time zone crossing. See the ASQ6115 flight status page for this flight to view local times or setup timezone preferences in your user account.

Time Position Orientation Groundspeed Altitude Reporting Facility
EDT Latitude Longitude Course Direction KTS MPH feet Rate Location/Type
11:14AM 36.1500 -86.7833 270° West 208 239 3,200  Level Nashville TRACON
11:15AM 36.1500 -86.8500 270° West 270 311 4,600 1,860 Climbing Nashville TRACON
11:16AM 35.8794 -87.0673 253° West  Level Estimated
11:16AM 36.1333 -86.9500 258° West 282 325 6,800  Level Nashville TRACON
11:17AM 35.8180 -87.1642 270° West  Level Estimated
11:17AM 36.1153 -87.0836 261° West 292 336 9,500  Level Memphis Center
11:18AM 35.7565 -87.2610 255° West  Level Estimated
11:18AM 36.1014 -87.1844 260° West 292 336 10,900  Level Memphis Center
11:19AM 35.7909 -87.3764 290° West  Level FlightAware Approximate
11:19AM 36.0831 -87.2906 258° West 312 359 11,700  Level Memphis Center
11:20AM 36.0589 -87.4094 256° West 351 404 12,600 900 Climbing Memphis Center
11:21AM 36.0364 -87.5156 255° West 356 410 13,500 900 Climbing Memphis Center
11:22AM 36.0119 -87.6369 256° West 362 417 14,500 900 Climbing Memphis Center
11:23AM 35.9875 -87.7558 256° West 362 417 15,400 900 Climbing Memphis Center
11:24AM 35.9608 -87.8797 255° West 362 417 16,400 960 Climbing Memphis Center
11:25AM 35.9361 -88.0011 256° West 362 417 17,400 900 Climbing Memphis Center
11:26AM 35.9072 -88.1350 255° West 362 417 18,300 900 Climbing Memphis Center
11:27AM 35.8883 -88.2458 258° West 362 417 19,200 900 Climbing Memphis Center
11:28AM 35.8381 -88.3597 241° Southwest 362 417 20,200 960 Climbing Memphis Center
11:29AM 35.7814 -88.4711 238° Southwest 377 434 21,200 960 Climbing Memphis Center
11:30AM 35.7228 -88.5900 239° Southwest 383 441 22,200 960 Climbing Memphis Center
11:31AM 35.6658 -88.7036 238° Southwest 388 447 23,200 900 Climbing Memphis Center
11:32AM 35.6192 -88.8042 240° Southwest 388 447 24,100 900 Climbing Memphis Center
11:33AM 35.5581 -88.9253 238° Southwest 382 440 25,100 960 Climbing Memphis Center
11:34AM 35.5050 -89.0308 238° Southwest 382 440 26,100 960 Climbing Memphis Center
11:35AM 35.4519 -89.1361 238° Southwest 376 433 27,100 960 Climbing Memphis Center
11:36AM 35.3986 -89.2414 238° Southwest 369 425 28,100 900 Climbing Memphis Center
11:37AM 35.3453 -89.3464 238° Southwest 369 425 29,000 900 Climbing Memphis Center
11:38AM 35.2919 -89.4489 238° Southwest 369 425 30,000 960 Climbing Memphis Center
11:39AM 35.2406 -89.5511 238° Southwest 369 425 31,000 960 Climbing Memphis Center
11:40AM 35.1908 -89.6508 239° Southwest 363 418 32,000 900 Climbing Memphis Center
11:41AM 35.1394 -89.7503 238° Southwest 358 412 32,900 900 Climbing Memphis Center
11:42AM 35.0897 -89.8494 239° Southwest 353 406 33,900 540 Climbing Memphis Center
11:43AM 35.0381 -89.9514 238° Southwest 353 406 34,000  Climbing Memphis Center
11:44AM 35.0069 -90.0681 252° West 358 412 34,000  Level Memphis Center
11:45AM 34.9883 -90.1922 260° West 366 421 34,000  Level Memphis Center
11:46AM 34.9697 -90.3242 260° West 379 436 34,000  Level Memphis Center
11:47AM 34.9511 -90.4408 259° West 394 453 34,000  Level Memphis Center
11:48AM 34.9300 -90.5775 259° West 399 459 34,000 -120 Level Memphis Center
11:49AM 34.9108 -90.7117 260° West 405 466 33,800  Descending Memphis Center
11:50AM 34.8875 -90.8483 258° West 410 472 34,000 60 Climbing Memphis Center
11:51AM 34.8703 -90.9822 261° West 410 472 34,000 -360 Level Memphis Center
11:52AM 34.8464 -91.1164 258° West 410 472 33,300 -900 Descending Memphis Center
11:53AM 34.8247 -91.2500 259° West 410 472 32,200 -660 Descending Memphis Center
11:54AM 34.7861 -91.3836 251° West 410 472 32,000 -120 Descending Memphis Center
11:55AM 34.6875 -91.4558 211° Southwest 394 453 32,000  Level Memphis Center
11:56AM 34.5786 -91.5050 200° South 408 470 32,000  Level Memphis Center
11:57AM 34.4633 -91.5536 199° South 419 482 32,000  Level Memphis Center
11:58AM 34.3544 -91.6050 201° Southwest 427 491 32,000  Level Memphis Center
11:59AM 34.2392 -91.6561 200° South 437 503 32,000  Level Memphis Center
12:00PM 34.1300 -91.7097 202° Southwest 430 495 32,000  Level Memphis Center
12:01PM 34.0231 -91.7606 202° Southwest 425 489 32,000  Level Memphis Center
12:03PM 33.8431 -91.8422 201° Southwest 431 496 32,000  Level Fort Worth Center
12:04PM 33.7325 -91.8917 200° South 431 496 32,000  Level Fort Worth Center
12:05PM 33.6200 -91.9436 201° Southwest 431 496 32,000  Level Fort Worth Center
12:06PM 33.5075 -91.9931 200° South 431 496 32,000  Level Fort Worth Center
12:07PM 33.3947 -92.0422 200° South 436 502 32,000  Level Fort Worth Center
12:08PM 33.2822 -92.0936 201° Southwest 436 502 32,000  Level Fort Worth Center
12:09PM 33.1717 -92.1425 200° South 441 507 32,000  Level Fort Worth Center
12:10PM 33.0589 -92.1939 201° Southwest 441 507 32,000  Level Fort Worth Center
12:11PM 32.9422 -92.2453 200° South 441 507 32,000  Level Fort Worth Center
12:12PM 32.8314 -92.2936 200° South 441 507 32,000  Level Fort Worth Center
12:13PM 32.7167 -92.3469 201° Southwest 441 507 32,000  Level Fort Worth Center
12:15PM 32.5456 -92.4239 201° Southwest 436 502 32,000  Level Houston Center
12:16PM 32.4328 -92.4764 201° Southwest 435 501 32,000  Level Houston Center
12:17PM 32.3181 -92.5253 200° South 438 504 32,000  Level Houston Center
12:18PM 32.1814 -92.5861 201° Southwest 438 504 32,000  Level Houston Center
12:19PM 32.0675 -92.6372 201° Southwest 439 505 32,000  Level Houston Center
12:20PM 31.9569 -92.6939 204° Southwest 436 502 32,000  Level Houston Center
12:21PM 31.8658 -92.7833 220° Southwest 428 493 32,000  Level Houston Center
12:22PM 31.7744 -92.8706 219° Southwest 426 490 32,000  Level Houston Center
12:23PM 31.6825 -92.9594 219° Southwest 428 493 32,000  Level Houston Center
12:24PM 31.5733 -93.0658 220° Southwest 428 493 32,000  Level Houston Center
12:25PM 31.4803 -93.1536 219° Southwest 429 494 32,000  Level Houston Center
12:26PM 31.3886 -93.2417 219° Southwest 430 495 32,000  Level Houston Center
12:27PM 31.2856 -93.3394 219° Southwest 428 493 32,000  Level Houston Center
12:28PM 31.2036 -93.4172 219° Southwest 428 493 32,000  Level Houston Center
12:29PM 31.0936 -93.5231 219° Southwest 429 494 32,000 -360 Level Houston Center
12:30PM 31.0006 -93.6097 219° Southwest 429 494 31,300 -1,440 Descending Houston Center
12:31PM 30.9081 -93.6978 219° Southwest 431 496 29,100 -2,280 Descending Houston Center
12:32PM 30.8150 -93.7858 219° Southwest 432 497 26,700 -2,340 Descending Houston Center
12:33PM 30.7194 -93.8756 219° Southwest 440 506 24,300 -2,520 Descending Houston Center
12:34PM 30.6042 -93.9850 219° Southwest 448 516 21,500 -2,460 Descending Houston Center
12:35PM 30.5106 -94.0717 219° Southwest 437 503 19,300 -2,220 Descending Houston Center
12:35PM 30.4983 -94.0847 223° Southwest 435 501 19,000 -2,640 Descending Houston Center
12:36PM 30.4386 -94.1389 218° Southwest 427 491 17,400 -2,340 Descending Houston Center
12:36PM 30.4194 -94.1578 220° Southwest 427 491 16,900 -2,400 Descending Houston Center
12:37PM 30.3464 -94.2264 219° Southwest 409 471 15,000 -2,280 Descending Houston Center
12:37PM 30.3325 -94.2383 217° Southwest 406 467 14,600 -2,280 Descending Houston Center
12:38PM 30.2711 -94.2944 218° Southwest 370 426 12,900 -2,040 Descending Houston Center
12:38PM 30.2528 -94.3133 222° Southwest 381 438 12,500 -900 Descending Houston Center
12:39PM 30.2014 -94.3739 226° Southwest 345 397 12,000 -600 Descending Houston Center
12:39PM 30.1900 -94.4208 254° West 353 406 11,900  Descending Houston Center
12:40PM 30.1769 -94.4883 257° West 353 406 12,000 60 Climbing Houston Center
12:40PM 30.1692 -94.5353 259° West 351 404 12,000  Level Houston Center
12:41PM 30.1536 -94.6169 258° West 364 419 12,000  Level Houston Center
12:42PM 30.1486 -94.6483 260° West 357 411 12,000  Level Houston Center
12:42PM 30.1361 -94.7183 258° West 360 414 12,000  Level Houston Center
12:43PM 30.1303 -94.7617 261° West 360 414 12,000 -540 Level Houston Center
12:43PM 30.1175 -94.8319 258° West 337 388 11,500 -1,020 Descending Houston Center
12:44PM 30.1119 -94.8694 260° West 353 406 11,000 -1,320 Descending Houston Center
12:44PM 30.1061 -94.9322 264° West 297 342 10,200 -1,200 Descending Houston Center
12:45PM 30.1058 -94.9625 269° West 310 357 9,800 -1,200 Descending Houston Center
12:45PM 30.1058 -95.0194 270° West 297 342 9,100 -1,380 Descending Houston Center
12:46PM 30.1069 -95.0750 271° West 298 343 8,400 -1,140 Descending Houston Center
12:46PM 30.1064 -95.1136 269° West 295 339 8,000 -1,020 Descending Houston Center
12:47PM 30.1081 -95.1667 272° West 290 334 7,400 -1,080 Descending Houston Center
12:47PM 30.1067 -95.2078 268° West 279 321 6,900 -1,260 Descending Houston Center
12:48PM 30.1078 -95.2561 272° West 285 328 6,100 -840 Descending Houston Center
12:48PM 30.1069 -95.3019 269° West 253 291 6,000 -120 Descending Houston Center
12:49PM 30.1069 -95.3364 270° West 265 305 6,000  Level Houston Center
12:49PM 30.1075 -95.3767 271° West 232 267 6,000 -120 Level Houston Center
12:50PM 30.1078 -95.4075 271° West 237 273 5,900 -900 Descending Houston Center
12:50PM 30.1056 -95.4469 266° West 205 236 5,100 -1,260 Descending Houston Center
12:51PM 30.1069 -95.4714 274° West 212 244 4,600 -1,440 Descending Houston Center
12:51PM 30.0961 -95.5061 250° West 217 250 3,800 -1,380 Descending Houston Center
12:52PM 30.0597 -95.5064 180° South 214 246 3,200 -1,020 Descending Houston Center
12:52PM 30.0411 -95.5006 165° South 183 211 2,800 -1,200 Descending Houston Center
12:53PM 30.0156 -95.4819 148° Southeast 190 219 2,000 -1,020 Descending Houston Center
12:53PM 30.0058 -95.4589 116° Southeast 145 167 1,700 -600 Descending Houston Center
12:54PM 30.0061 -95.4361 89° East 160 184 1,400 -720 Descending Houston Center
12:54PM 30.0058 -95.4131 91° East 143 165 1,000 -780 Descending Houston Center
12:55PM 30.0075 -95.3925 85° East 145 167 600 -660 Descending Houston Center
12:55PM 30.0064 -95.3719 94° East 138 159 400 -240 Descending Houston Center
12:56PM 30.0069 -95.3503 88° East 143 165 400  Level Houston Center